sensor_id;sensor_type;location;lat;lon;timestamp;temperature;humidity
64012;DHT22;50211;52.768;12.124;2023-03-01T00:01:13;-2.40;99.90
64012;DHT22;50211;52.768;12.124;2023-03-01T00:03:39;-2.40;99.90
64012;DHT22;50211;52.768;12.124;2023-03-01T00:06:05;-2.30;99.90
64012;DHT22;50211;52.768;12.124;2023-03-01T00:08:31;-2.40;99.90
64012;DHT22;50211;52.768;12.124;2023-03-01T00:11:03;-2.40;99.90
64012;DHT22;50211;52.768;12.124;2023-03-01T00:13:29;-2.40;99.90
64012;DHT22;50211;52.768;12.124;2023-03-01T00:15:54;-2.30;99.90
64012;DHT22;50211;52.768;12.124;2023-03-01T00:18:20;-2.30;99.90
64012;DHT22;50211;52.768;12.124;2023-03-01T00:20:53;-2.40;99.90
64012;DHT22;50211;52.768;12.124;2023-03-01T00:23:19;-2.30;99.90
64012;DHT22;50211;52.768;12.124;2023-03-01T00:25:45;-2.40;99.90
64012;DHT22;50211;52.768;12.124;2023-03-01T00:28:11;-2.40;99.90
64012;DHT22;50211;52.768;12.124;2023-03-01T00:30:36;-2.50;99.90
64012;DHT22;50211;52.768;12.124;2023-03-01T00:33:02;-2.50;99.90
64012;DHT22;50211;52.768;12.124;2023-03-01T00:35:27;-2.40;99.90
64012;DHT22;50211;52.768;12.124;2023-03-01T00:37:53;-2.40;99.90
64012;DHT22;50211;52.768;12.124;2023-03-01T00:40:24;-2.50;99.90
64012;DHT22;50211;52.768;12.124;2023-03-01T00:42:50;-2.50;99.90
64012;DHT22;50211;52.768;12.124;2023-03-01T00:45:15;-2.50;99.90
64012;DHT22;50211;52.768;12.124;2023-03-01T00:47:41;-2.50;99.90
64012;DHT22;50211;52.768;12.124;2023-03-01T00:50:07;-2.50;99.90
64012;DHT22;50211;52.768;12.124;2023-03-01T00:52:33;-2.60;99.90
64012;DHT22;50211;52.768;12.124;2023-03-01T00:54:58;-2.70;99.90
64012;DHT22;50211;52.768;12.124;2023-03-01T00:57:24;-2.80;99.90
64012;DHT22;50211;52.768;12.124;2023-03-01T00:59:49;-2.80;99.90
64012;DHT22;50211;52.768;12.124;2023-03-01T01:02:18;-2.80;99.90
64012;DHT22;50211;52.768;12.124;2023-03-01T01:04:43;-2.80;99.90
64012;DHT22;50211;52.768;12.124;2023-03-01T01:07:09;-2.90;99.90
64012;DHT22;50211;52.768;12.124;2023-03-01T01:09:34;-3.10;99.90
64012;DHT22;50211;52.768;12.124;2023-03-01T01:12:00;-3.10;99.90
64012;DHT22;50211;52.768;12.124;2023-03-01T01:14:26;-3.30;99.90
64012;DHT22;50211;52.768;12.124;2023-03-01T01:16:51;-3.20;99.90
64012;DHT22;50211;52.768;12.124;2023-03-01T01:19:17;-3.20;99.90
64012;DHT22;50211;52.768;12.124;2023-03-01T01:21:42;-3.10;99.90
64012;DHT22;50211;52.768;12.124;2023-03-01T01:24:08;-3.00;99.90
64012;DHT22;50211;52.768;12.124;2023-03-01T01:26:34;-3.00;99.90
64012;DHT22;50211;52.768;12.124;2023-03-01T01:29:01;-3.00;99.90
64012;DHT22;50211;52.768;12.124;2023-03-01T01:31:27;-3.00;99.90
64012;DHT22;50211;52.768;12.124;2023-03-01T01:33:56;-3.00;99.90
64012;DHT22;50211;52.768;12.124;2023-03-01T01:36:22;-2.90;99.90
64012;DHT22;50211;52.768;12.124;2023-03-01T01:38:48;-2.90;99.90
64012;DHT22;50211;52.768;12.124;2023-03-01T01:41:14;-2.90;99.90
64012;DHT22;50211;52.768;12.124;2023-03-01T01:46:58;-2.90;99.90
64012;DHT22;50211;52.768;12.124;2023-03-01T01:49:37;-3.00;99.90
64012;DHT22;50211;52.768;12.124;2023-03-01T01:52:27;-3.10;99.90
64012;DHT22;50211;52.768;12.124;2023-03-01T01:57:34;-3.00;99.90
64012;DHT22;50211;52.768;12.124;2023-03-01T02:00:05;-3.00;99.90
64012;DHT22;50211;52.768;12.124;2023-03-01T02:02:31;-3.00;99.90
64012;DHT22;50211;52.768;12.124;2023-03-01T02:05:11;-3.10;99.90
64012;DHT22;50211;52.768;12.124;2023-03-01T02:07:39;-3.10;99.90
64012;DHT22;50211;52.768;12.124;2023-03-01T02:10:06;-3.10;99.90
64012;DHT22;50211;52.768;12.124;2023-03-01T02:12:32;-3.10;99.90
64012;DHT22;50211;52.768;12.124;2023-03-01T02:14:58;-3.00;99.90
64012;DHT22;50211;52.768;12.124;2023-03-01T02:17:24;-3.00;99.90
64012;DHT22;50211;52.768;12.124;2023-03-01T02:22:27;-3.00;99.90
64012;DHT22;50211;52.768;12.124;2023-03-01T02:27:56;-3.10;99.90
64012;DHT22;50211;52.768;12.124;2023-03-01T02:30:24;-3.20;99.90
64012;DHT22;50211;52.768;12.124;2023-03-01T02:32:53;-3.20;99.90
64012;DHT22;50211;52.768;12.124;2023-03-01T02:35:20;-3.20;99.90
64012;DHT22;50211;52.768;12.124;2023-03-01T02:37:46;-3.20;99.90
64012;DHT22;50211;52.768;12.124;2023-03-01T02:40:16;-3.20;99.90
64012;DHT22;50211;52.768;12.124;2023-03-01T02:42:53;-3.20;99.90
64012;DHT22;50211;52.768;12.124;2023-03-01T02:45:19;-3.20;99.90
64012;DHT22;50211;52.768;12.124;2023-03-01T02:47:45;-3.30;99.90
64012;DHT22;50211;52.768;12.124;2023-03-01T02:50:51;-3.50;99.90
64012;DHT22;50211;52.768;12.124;2023-03-01T02:56:13;-3.50;99.90
64012;DHT22;50211;52.768;12.124;2023-03-01T02:58:43;-3.40;99.90
64012;DHT22;50211;52.768;12.124;2023-03-01T03:01:16;-3.40;99.90
64012;DHT22;50211;52.768;12.124;2023-03-01T03:03:42;-3.40;99.90
64012;DHT22;50211;52.768;12.124;2023-03-01T03:06:08;-3.40;99.90
64012;DHT22;50211;52.768;12.124;2023-03-01T03:08:34;-3.40;99.90
64012;DHT22;50211;52.768;12.124;2023-03-01T03:10:59;-3.40;99.90
64012;DHT22;50211;52.768;12.124;2023-03-01T03:13:25;-3.30;99.90
64012;DHT22;50211;52.768;12.124;2023-03-01T03:15:57;-3.30;99.90
64012;DHT22;50211;52.768;12.124;2023-03-01T03:18:24;-3.30;99.90
64012;DHT22;50211;52.768;12.124;2023-03-01T03:20:52;-3.30;99.90
64012;DHT22;50211;52.768;12.124;2023-03-01T03:23:20;-3.40;99.90
64012;DHT22;50211;52.768;12.124;2023-03-01T03:25:50;-3.60;99.90
64012;DHT22;50211;52.768;12.124;2023-03-01T03:28:16;-3.90;99.90
64012;DHT22;50211;52.768;12.124;2023-03-01T03:30:42;-3.90;99.90
64012;DHT22;50211;52.768;12.124;2023-03-01T03:33:09;-3.80;99.90
64012;DHT22;50211;52.768;12.124;2023-03-01T03:35:41;-3.80;99.90
64012;DHT22;50211;52.768;12.124;2023-03-01T03:38:10;-3.70;99.90
64012;DHT22;50211;52.768;12.124;2023-03-01T03:40:45;-3.80;99.90
64012;DHT22;50211;52.768;12.124;2023-03-01T03:43:31;-3.70;99.90
64012;DHT22;50211;52.768;12.124;2023-03-01T03:45:57;-3.70;99.90
64012;DHT22;50211;52.768;12.124;2023-03-01T03:48:23;-3.70;99.90
64012;DHT22;50211;52.768;12.124;2023-03-01T03:50:51;-3.80;99.90
64012;DHT22;50211;52.768;12.124;2023-03-01T03:53:18;-3.80;99.90
64012;DHT22;50211;52.768;12.124;2023-03-01T03:55:44;-3.70;99.90
64012;DHT22;50211;52.768;12.124;2023-03-01T03:58:10;-3.70;99.90
64012;DHT22;50211;52.768;12.124;2023-03-01T04:00:38;-3.70;99.90
64012;DHT22;50211;52.768;12.124;2023-03-01T04:03:04;-3.70;99.90
64012;DHT22;50211;52.768;12.124;2023-03-01T04:05:30;-3.70;99.90
64012;DHT22;50211;52.768;12.124;2023-03-01T04:07:56;-3.70;99.90
64012;DHT22;50211;52.768;12.124;2023-03-01T04:10:29;-3.70;99.90
64012;DHT22;50211;52.768;12.124;2023-03-01T04:12:56;-3.70;99.90
64012;DHT22;50211;52.768;12.124;2023-03-01T04:15:22;-3.70;99.90
64012;DHT22;50211;52.768;12.124;2023-03-01T04:17:50;-3.70;99.90
64012;DHT22;50211;52.768;12.124;2023-03-01T04:20:19;-3.70;99.90
64012;DHT22;50211;52.768;12.124;2023-03-01T04:22:57;-3.80;99.90
64012;DHT22;50211;52.768;12.124;2023-03-01T04:25:23;-3.80;99.90
64012;DHT22;50211;52.768;12.124;2023-03-01T04:27:49;-3.80;99.90
64012;DHT22;50211;52.768;12.124;2023-03-01T04:30:15;-3.90;99.90
64012;DHT22;50211;52.768;12.124;2023-03-01T04:32:40;-4.00;99.90
64012;DHT22;50211;52.768;12.124;2023-03-01T04:35:06;-4.00;99.90
64012;DHT22;50211;52.768;12.124;2023-03-01T04:37:32;-3.90;99.90
64012;DHT22;50211;52.768;12.124;2023-03-01T04:39:57;-3.80;99.90
64012;DHT22;50211;52.768;12.124;2023-03-01T04:42:23;-3.80;99.90
64012;DHT22;50211;52.768;12.124;2023-03-01T04:44:48;-3.70;99.90
64012;DHT22;50211;52.768;12.124;2023-03-01T04:47:16;-3.70;99.90
64012;DHT22;50211;52.768;12.124;2023-03-01T04:49:42;-3.70;99.90
64012;DHT22;50211;52.768;12.124;2023-03-01T04:52:08;-3.70;99.90
64012;DHT22;50211;52.768;12.124;2023-03-01T04:54:35;-3.70;99.90
64012;DHT22;50211;52.768;12.124;2023-03-01T04:57:02;-3.80;99.90
64012;DHT22;50211;52.768;12.124;2023-03-01T04:59:28;-3.90;99.90
64012;DHT22;50211;52.768;12.124;2023-03-01T05:01:55;-3.90;99.90
64012;DHT22;50211;52.768;12.124;2023-03-01T05:04:22;-3.90;99.90
64012;DHT22;50211;52.768;12.124;2023-03-01T05:06:48;-3.90;99.90
64012;DHT22;50211;52.768;12.124;2023-03-01T05:09:13;-3.90;99.90
64012;DHT22;50211;52.768;12.124;2023-03-01T05:11:39;-3.90;99.90
64012;DHT22;50211;52.768;12.124;2023-03-01T05:14:06;-4.00;99.90
64012;DHT22;50211;52.768;12.124;2023-03-01T05:16:32;-4.00;99.90
64012;DHT22;50211;52.768;12.124;2023-03-01T05:18:58;-4.00;99.90
64012;DHT22;50211;52.768;12.124;2023-03-01T05:21:24;-4.00;99.90
64012;DHT22;50211;52.768;12.124;2023-03-01T05:23:50;-4.00;99.90
64012;DHT22;50211;52.768;12.124;2023-03-01T05:26:18;-3.90;99.90
64012;DHT22;50211;52.768;12.124;2023-03-01T05:28:44;-4.00;99.90
64012;DHT22;50211;52.768;12.124;2023-03-01T05:31:09;-4.10;99.90
64012;DHT22;50211;52.768;12.124;2023-03-01T05:33:36;-4.20;99.90
64012;DHT22;50211;52.768;12.124;2023-03-01T05:36:03;-4.20;99.90
64012;DHT22;50211;52.768;12.124;2023-03-01T05:38:29;-4.30;99.90
64012;DHT22;50211;52.768;12.124;2023-03-01T05:40:54;-4.40;99.90
64012;DHT22;50211;52.768;12.124;2023-03-01T05:43:20;-4.50;99.90
64012;DHT22;50211;52.768;12.124;2023-03-01T05:45:45;-4.50;99.90
64012;DHT22;50211;52.768;12.124;2023-03-01T05:48:12;-4.50;99.90
64012;DHT22;50211;52.768;12.124;2023-03-01T05:50:40;-4.40;99.90
64012;DHT22;50211;52.768;12.124;2023-03-01T05:53:17;-4.50;99.90
64012;DHT22;50211;52.768;12.124;2023-03-01T05:55:44;-4.40;99.90
64012;DHT22;50211;52.768;12.124;2023-03-01T05:58:14;-4.30;99.90
64012;DHT22;50211;52.768;12.124;2023-03-01T06:00:41;-4.30;99.90
64012;DHT22;50211;52.768;12.124;2023-03-01T06:03:10;-4.30;99.90
64012;DHT22;50211;52.768;12.124;2023-03-01T06:05:35;-4.40;99.90
64012;DHT22;50211;52.768;12.124;2023-03-01T06:08:02;-4.50;99.90
64012;DHT22;50211;52.768;12.124;2023-03-01T06:10:28;-4.40;99.90
64012;DHT22;50211;52.768;12.124;2023-03-01T06:12:54;-4.40;99.90
64012;DHT22;50211;52.768;12.124;2023-03-01T06:15:19;-4.40;99.90
64012;DHT22;50211;52.768;12.124;2023-03-01T06:17:46;-4.40;99.90
64012;DHT22;50211;52.768;12.124;2023-03-01T06:20:15;-4.30;99.90
64012;DHT22;50211;52.768;12.124;2023-03-01T06:22:41;-4.30;99.90
64012;DHT22;50211;52.768;12.124;2023-03-01T06:25:08;-4.30;99.90
64012;DHT22;50211;52.768;12.124;2023-03-01T06:27:34;-4.20;99.90
64012;DHT22;50211;52.768;12.124;2023-03-01T06:30:00;-4.30;99.90
64012;DHT22;50211;52.768;12.124;2023-03-01T06:32:25;-4.50;99.90
64012;DHT22;50211;52.768;12.124;2023-03-01T06:34:51;-4.60;99.90
64012;DHT22;50211;52.768;12.124;2023-03-01T06:37:16;-4.50;99.90
64012;DHT22;50211;52.768;12.124;2023-03-01T06:39:42;-4.40;99.90
64012;DHT22;50211;52.768;12.124;2023-03-01T06:42:08;-4.40;99.90
64012;DHT22;50211;52.768;12.124;2023-03-01T06:44:35;-4.30;99.90
64012;DHT22;50211;52.768;12.124;2023-03-01T06:47:01;-4.30;99.90
64012;DHT22;50211;52.768;12.124;2023-03-01T06:49:26;-4.20;99.90
64012;DHT22;50211;52.768;12.124;2023-03-01T06:51:52;-4.10;99.90
64012;DHT22;50211;52.768;12.124;2023-03-01T06:54:17;-4.00;99.90
64012;DHT22;50211;52.768;12.124;2023-03-01T06:56:46;-3.90;99.90
64012;DHT22;50211;52.768;12.124;2023-03-01T06:59:12;-3.80;99.90
64012;DHT22;50211;52.768;12.124;2023-03-01T07:01:38;-3.70;99.90
64012;DHT22;50211;52.768;12.124;2023-03-01T07:04:04;-3.60;99.90
64012;DHT22;50211;52.768;12.124;2023-03-01T07:06:29;-3.50;99.90
64012;DHT22;50211;52.768;12.124;2023-03-01T07:08:55;-3.40;99.90
64012;DHT22;50211;52.768;12.124;2023-03-01T07:11:20;-3.40;99.90
64012;DHT22;50211;52.768;12.124;2023-03-01T07:13:46;-3.30;99.90
64012;DHT22;50211;52.768;12.124;2023-03-01T07:16:11;-3.10;99.90
64012;DHT22;50211;52.768;12.124;2023-03-01T07:18:37;-3.00;99.90
64012;DHT22;50211;52.768;12.124;2023-03-01T07:21:07;-2.80;99.90
64012;DHT22;50211;52.768;12.124;2023-03-01T07:23:32;-2.70;99.90
64012;DHT22;50211;52.768;12.124;2023-03-01T07:25:58;-2.60;99.90
64012;DHT22;50211;52.768;12.124;2023-03-01T07:28:24;-2.40;99.90
64012;DHT22;50211;52.768;12.124;2023-03-01T07:30:49;-2.20;99.90
64012;DHT22;50211;52.768;12.124;2023-03-01T07:33:16;-2.20;99.90
64012;DHT22;50211;52.768;12.124;2023-03-01T07:35:41;-2.10;99.90
64012;DHT22;50211;52.768;12.124;2023-03-01T07:38:07;-1.90;99.90
64012;DHT22;50211;52.768;12.124;2023-03-01T07:40:33;-1.70;99.90
64012;DHT22;50211;52.768;12.124;2023-03-01T07:42:59;-1.50;99.90
64012;DHT22;50211;52.768;12.124;2023-03-01T07:45:27;-1.30;99.90
64012;DHT22;50211;52.768;12.124;2023-03-01T07:47:53;-1.20;99.90
64012;DHT22;50211;52.768;12.124;2023-03-01T07:50:18;-1.00;99.90
64012;DHT22;50211;52.768;12.124;2023-03-01T07:52:48;-0.70;99.90
64012;DHT22;50211;52.768;12.124;2023-03-01T07:55:14;-0.50;99.90
64012;DHT22;50211;52.768;12.124;2023-03-01T07:57:40;-0.20;99.90
64012;DHT22;50211;52.768;12.124;2023-03-01T08:00:07;0.00;99.90
64012;DHT22;50211;52.768;12.124;2023-03-01T08:02:32;0.20;99.90
64012;DHT22;50211;52.768;12.124;2023-03-01T08:04:58;0.40;99.90
64012;DHT22;50211;52.768;12.124;2023-03-01T08:07:23;0.60;99.90
64012;DHT22;50211;52.768;12.124;2023-03-01T08:09:49;0.80;99.90
64012;DHT22;50211;52.768;12.124;2023-03-01T08:12:14;1.00;99.90
64012;DHT22;50211;52.768;12.124;2023-03-01T08:14:42;1.20;99.90
64012;DHT22;50211;52.768;12.124;2023-03-01T08:17:07;1.50;99.90
64012;DHT22;50211;52.768;12.124;2023-03-01T08:19:33;1.60;99.90
64012;DHT22;50211;52.768;12.124;2023-03-01T08:22:01;1.80;99.90
64012;DHT22;50211;52.768;12.124;2023-03-01T08:24:26;2.00;99.90
64012;DHT22;50211;52.768;12.124;2023-03-01T08:26:53;2.00;99.90
64012;DHT22;50211;52.768;12.124;2023-03-01T08:29:18;2.20;99.90
64012;DHT22;50211;52.768;12.124;2023-03-01T08:31:44;2.50;99.90
64012;DHT22;50211;52.768;12.124;2023-03-01T08:34:13;2.90;99.90
64012;DHT22;50211;52.768;12.124;2023-03-01T08:36:41;3.20;99.90
64012;DHT22;50211;52.768;12.124;2023-03-01T08:39:08;3.50;99.90
64012;DHT22;50211;52.768;12.124;2023-03-01T08:41:35;3.80;99.90
64012;DHT22;50211;52.768;12.124;2023-03-01T08:44:00;4.10;99.90
64012;DHT22;50211;52.768;12.124;2023-03-01T08:46:27;4.20;99.90
64012;DHT22;50211;52.768;12.124;2023-03-01T08:48:53;4.60;99.90
64012;DHT22;50211;52.768;12.124;2023-03-01T08:51:20;4.90;99.90
64012;DHT22;50211;52.768;12.124;2023-03-01T08:53:46;5.20;99.90
64012;DHT22;50211;52.768;12.124;2023-03-01T08:56:12;5.60;99.90
64012;DHT22;50211;52.768;12.124;2023-03-01T08:58:38;5.80;99.90
64012;DHT22;50211;52.768;12.124;2023-03-01T09:01:13;6.10;99.90
64012;DHT22;50211;52.768;12.124;2023-03-01T09:03:39;6.40;99.90
64012;DHT22;50211;52.768;12.124;2023-03-01T09:06:06;6.60;99.90
64012;DHT22;50211;52.768;12.124;2023-03-01T09:08:35;6.80;99.90
64012;DHT22;50211;52.768;12.124;2023-03-01T09:11:02;7.00;99.90
64012;DHT22;50211;52.768;12.124;2023-03-01T09:13:28;7.30;99.90
64012;DHT22;50211;52.768;12.124;2023-03-01T09:15:56;7.50;99.90
64012;DHT22;50211;52.768;12.124;2023-03-01T09:18:22;7.60;99.90
64012;DHT22;50211;52.768;12.124;2023-03-01T09:20:47;7.50;99.90
64012;DHT22;50211;52.768;12.124;2023-03-01T09:23:13;7.80;99.90
64012;DHT22;50211;52.768;12.124;2023-03-01T09:25:38;8.00;99.90
64012;DHT22;50211;52.768;12.124;2023-03-01T09:28:04;8.10;99.90
64012;DHT22;50211;52.768;12.124;2023-03-01T09:30:29;8.10;99.90
64012;DHT22;50211;52.768;12.124;2023-03-01T09:32:56;8.30;99.90
64012;DHT22;50211;52.768;12.124;2023-03-01T09:35:22;8.30;99.90
64012;DHT22;50211;52.768;12.124;2023-03-01T09:37:48;8.40;99.90
64012;DHT22;50211;52.768;12.124;2023-03-01T09:40:18;8.60;99.90
64012;DHT22;50211;52.768;12.124;2023-03-01T09:42:57;8.70;99.90
64012;DHT22;50211;52.768;12.124;2023-03-01T09:45:33;8.80;99.90
64012;DHT22;50211;52.768;12.124;2023-03-01T09:48:00;9.10;99.90
64012;DHT22;50211;52.768;12.124;2023-03-01T09:50:31;9.20;99.90
64012;DHT22;50211;52.768;12.124;2023-03-01T09:53:09;9.40;99.90
64012;DHT22;50211;52.768;12.124;2023-03-01T09:55:48;9.10;99.90
64012;DHT22;50211;52.768;12.124;2023-03-01T09:58:36;8.90;99.90
64012;DHT22;50211;52.768;12.124;2023-03-01T10:03:44;9.00;99.90
64012;DHT22;50211;52.768;12.124;2023-03-01T10:06:21;9.70;99.90
64012;DHT22;50211;52.768;12.124;2023-03-01T10:08:56;9.70;99.90
64012;DHT22;50211;52.768;12.124;2023-03-01T10:11:25;9.80;99.90
64012;DHT22;50211;52.768;12.124;2023-03-01T10:16:51;9.90;99.90
64012;DHT22;50211;52.768;12.124;2023-03-01T10:19:34;9.90;99.90
64012;DHT22;50211;52.768;12.124;2023-03-01T10:22:21;9.80;99.90
64012;DHT22;50211;52.768;12.124;2023-03-01T10:24:49;9.90;99.90
64012;DHT22;50211;52.768;12.124;2023-03-01T10:32:12;10.60;99.90
64012;DHT22;50211;52.768;12.124;2023-03-01T10:34:37;10.40;99.90
64012;DHT22;50211;52.768;12.124;2023-03-01T10:37:18;10.40;99.90
64012;DHT22;50211;52.768;12.124;2023-03-01T10:42:33;10.70;99.90
64012;DHT22;50211;52.768;12.124;2023-03-01T10:47:40;11.80;99.20
64012;DHT22;50211;52.768;12.124;2023-03-01T10:50:19;11.40;99.90
64012;DHT22;50211;52.768;12.124;2023-03-01T10:52:59;11.00;99.90
64012;DHT22;50211;52.768;12.124;2023-03-01T10:55:35;11.00;99.90
64012;DHT22;50211;52.768;12.124;2023-03-01T10:58:20;11.40;99.90
64012;DHT22;50211;52.768;12.124;2023-03-01T11:03:14;11.00;99.90
64012;DHT22;50211;52.768;12.124;2023-03-01T11:08:44;10.80;99.90
64012;DHT22;50211;52.768;12.124;2023-03-01T11:11:14;9.90;99.90
64012;DHT22;50211;52.768;12.124;2023-03-01T11:14:03;9.70;99.70
64012;DHT22;50211;52.768;12.124;2023-03-01T11:16:37;9.90;99.90
64012;DHT22;50211;52.768;12.124;2023-03-01T11:22:21;11.00;99.80
64012;DHT22;50211;52.768;12.124;2023-03-01T11:24:30;11.40;99.90
64012;DHT22;50211;52.768;12.124;2023-03-01T11:27:00;11.60;99.60
64012;DHT22;50211;52.768;12.124;2023-03-01T11:29:35;11.20;97.30
64012;DHT22;50211;52.768;12.124;2023-03-01T11:32:06;10.70;99.40
64012;DHT22;50211;52.768;12.124;2023-03-01T11:34:45;10.70;98.60
64012;DHT22;50211;52.768;12.124;2023-03-01T11:37:22;10.60;98.00
64012;DHT22;50211;52.768;12.124;2023-03-01T11:39:59;10.40;99.30
64012;DHT22;50211;52.768;12.124;2023-03-01T11:42:41;10.90;99.10
64012;DHT22;50211;52.768;12.124;2023-03-01T11:45:11;11.30;97.10
64012;DHT22;50211;52.768;12.124;2023-03-01T11:47:49;11.70;97.20
64012;DHT22;50211;52.768;12.124;2023-03-01T11:50:30;12.10;97.20
64012;DHT22;50211;52.768;12.124;2023-03-01T11:53:22;12.20;97.80
64012;DHT22;50211;52.768;12.124;2023-03-01T11:56:23;11.90;95.00
64012;DHT22;50211;52.768;12.124;2023-03-01T11:59:11;11.80;96.90
64012;DHT22;50211;52.768;12.124;2023-03-01T12:02:07;11.50;97.20
64012;DHT22;50211;52.768;12.124;2023-03-01T12:07:37;12.30;96.70
64012;DHT22;50211;52.768;12.124;2023-03-01T12:15:45;14.00;96.10
64012;DHT22;50211;52.768;12.124;2023-03-01T12:18:30;14.60;94.70
64012;DHT22;50211;52.768;12.124;2023-03-01T12:24:10;15.20;93.70
64012;DHT22;50211;52.768;12.124;2023-03-01T12:26:56;15.60;92.00
64012;DHT22;50211;52.768;12.124;2023-03-01T12:29:31;15.30;89.30
64012;DHT22;50211;52.768;12.124;2023-03-01T12:32:25;15.00;87.10
64012;DHT22;50211;52.768;12.124;2023-03-01T12:46:38;16.20;85.30
64012;DHT22;50211;52.768;12.124;2023-03-01T12:49:20;16.70;82.60
64012;DHT22;50211;52.768;12.124;2023-03-01T12:51:54;16.90;78.90
64012;DHT22;50211;52.768;12.124;2023-03-01T12:54:35;16.70;80.40
64012;DHT22;50211;52.768;12.124;2023-03-01T12:57:33;16.60;81.60
64012;DHT22;50211;52.768;12.124;2023-03-01T13:00:28;16.70;78.50
64012;DHT22;50211;52.768;12.124;2023-03-01T13:03:23;16.80;80.60
64012;DHT22;50211;52.768;12.124;2023-03-01T13:06:23;17.00;79.70
64012;DHT22;50211;52.768;12.124;2023-03-01T13:08:58;16.90;81.10
64012;DHT22;50211;52.768;12.124;2023-03-01T13:11:27;16.60;79.60
64012;DHT22;50211;52.768;12.124;2023-03-01T13:16:44;16.30;80.60
64012;DHT22;50211;52.768;12.124;2023-03-01T13:19:18;16.10;81.80
64012;DHT22;50211;52.768;12.124;2023-03-01T13:21:45;16.00;82.80
64012;DHT22;50211;52.768;12.124;2023-03-01T13:24:35;16.00;81.80
64012;DHT22;50211;52.768;12.124;2023-03-01T13:29:53;15.40;83.40
64012;DHT22;50211;52.768;12.124;2023-03-01T13:32:21;14.70;83.00
64012;DHT22;50211;52.768;12.124;2023-03-01T13:34:49;14.80;83.90
64012;DHT22;50211;52.768;12.124;2023-03-01T13:37:30;15.10;83.80
64012;DHT22;50211;52.768;12.124;2023-03-01T13:40:04;15.30;84.70
64012;DHT22;50211;52.768;12.124;2023-03-01T13:42:41;14.80;84.40
64012;DHT22;50211;52.768;12.124;2023-03-01T13:48:01;14.20;88.30
64012;DHT22;50211;52.768;12.124;2023-03-01T13:50:29;14.10;88.10
64012;DHT22;50211;52.768;12.124;2023-03-01T13:53:02;14.40;85.80
64012;DHT22;50211;52.768;12.124;2023-03-01T13:55:56;14.70;87.00
64012;DHT22;50211;52.768;12.124;2023-03-01T14:01:05;14.50;85.80
64012;DHT22;50211;52.768;12.124;2023-03-01T14:03:33;14.60;84.90
64012;DHT22;50211;52.768;12.124;2023-03-01T14:06:03;14.90;87.80
64012;DHT22;50211;52.768;12.124;2023-03-01T14:08:31;15.30;84.30
64012;DHT22;50211;52.768;12.124;2023-03-01T14:13:55;15.70;81.20
64012;DHT22;50211;52.768;12.124;2023-03-01T14:19:25;15.20;80.60
64012;DHT22;50211;52.768;12.124;2023-03-01T14:24:34;16.00;79.90
64012;DHT22;50211;52.768;12.124;2023-03-01T14:27:02;16.70;79.60
64012;DHT22;50211;52.768;12.124;2023-03-01T14:29:35;16.70;79.00
64012;DHT22;50211;52.768;12.124;2023-03-01T14:32:21;16.50;77.90
64012;DHT22;50211;52.768;12.124;2023-03-01T14:34:49;16.90;78.50
64012;DHT22;50211;52.768;12.124;2023-03-01T14:37:27;17.60;75.90
64012;DHT22;50211;52.768;12.124;2023-03-01T14:39:53;17.70;74.90
64012;DHT22;50211;52.768;12.124;2023-03-01T14:42:21;17.40;74.30
64012;DHT22;50211;52.768;12.124;2023-03-01T14:44:49;17.00;75.00
64012;DHT22;50211;52.768;12.124;2023-03-01T14:47:31;15.70;77.00
64012;DHT22;50211;52.768;12.124;2023-03-01T14:52:46;13.50;83.00
64012;DHT22;50211;52.768;12.124;2023-03-01T14:55:18;13.00;84.50
64012;DHT22;50211;52.768;12.124;2023-03-01T14:57:47;12.40;86.20
64012;DHT22;50211;52.768;12.124;2023-03-01T15:00:20;11.90;88.60
64012;DHT22;50211;52.768;12.124;2023-03-01T15:02:54;11.40;87.70
64012;DHT22;50211;52.768;12.124;2023-03-01T15:05:29;11.10;90.90
64012;DHT22;50211;52.768;12.124;2023-03-01T15:07:57;10.40;91.50
64012;DHT22;50211;52.768;12.124;2023-03-01T15:10:25;10.00;91.80
64012;DHT22;50211;52.768;12.124;2023-03-01T15:12:51;9.80;92.50
64012;DHT22;50211;52.768;12.124;2023-03-01T15:15:37;9.80;93.10
64012;DHT22;50211;52.768;12.124;2023-03-01T15:18:20;9.80;92.70
64012;DHT22;50211;52.768;12.124;2023-03-01T15:20:50;10.00;92.70
64012;DHT22;50211;52.768;12.124;2023-03-01T15:23:27;10.10;92.40
64012;DHT22;50211;52.768;12.124;2023-03-01T15:25:55;10.30;92.30
64012;DHT22;50211;52.768;12.124;2023-03-01T15:28:31;10.20;92.20
64012;DHT22;50211;52.768;12.124;2023-03-01T15:31:12;10.20;92.40
64012;DHT22;50211;52.768;12.124;2023-03-01T15:33:39;10.20;92.60
64012;DHT22;50211;52.768;12.124;2023-03-01T15:36:36;10.50;92.80
64012;DHT22;50211;52.768;12.124;2023-03-01T15:39:02;11.30;91.60
64012;DHT22;50211;52.768;12.124;2023-03-01T15:41:29;12.00;90.60
64012;DHT22;50211;52.768;12.124;2023-03-01T15:43:57;12.40;90.50
64012;DHT22;50211;52.768;12.124;2023-03-01T15:46:31;12.80;89.70
64012;DHT22;50211;52.768;12.124;2023-03-01T15:49:00;13.20;88.10
64012;DHT22;50211;52.768;12.124;2023-03-01T15:51:29;13.50;86.30
64012;DHT22;50211;52.768;12.124;2023-03-01T15:53:56;13.90;86.50
64012;DHT22;50211;52.768;12.124;2023-03-01T15:56:23;14.00;87.70
64012;DHT22;50211;52.768;12.124;2023-03-01T15:58:48;14.30;85.00
64012;DHT22;50211;52.768;12.124;2023-03-01T16:01:15;14.30;84.30
64012;DHT22;50211;52.768;12.124;2023-03-01T16:03:44;14.40;85.00
64012;DHT22;50211;52.768;12.124;2023-03-01T16:06:11;14.50;84.50
64012;DHT22;50211;52.768;12.124;2023-03-01T16:08:38;14.90;84.10
64012;DHT22;50211;52.768;12.124;2023-03-01T16:11:05;15.30;86.00
64012;DHT22;50211;52.768;12.124;2023-03-01T16:13:34;15.30;84.30
64012;DHT22;50211;52.768;12.124;2023-03-01T16:15:59;14.80;86.00
64012;DHT22;50211;52.768;12.124;2023-03-01T16:18:25;14.10;86.40
64012;DHT22;50211;52.768;12.124;2023-03-01T16:20:50;13.40;88.20
64012;DHT22;50211;52.768;12.124;2023-03-01T16:23:16;12.60;90.60
64012;DHT22;50211;52.768;12.124;2023-03-01T16:25:41;11.90;91.40
64012;DHT22;50211;52.768;12.124;2023-03-01T16:28:07;11.20;92.50
64012;DHT22;50211;52.768;12.124;2023-03-01T16:30:37;10.60;93.90
64012;DHT22;50211;52.768;12.124;2023-03-01T16:33:03;9.90;95.00
64012;DHT22;50211;52.768;12.124;2023-03-01T16:35:32;9.30;96.50
64012;DHT22;50211;52.768;12.124;2023-03-01T16:37:59;8.90;97.70
64012;DHT22;50211;52.768;12.124;2023-03-01T16:40:27;8.50;98.90
64012;DHT22;50211;52.768;12.124;2023-03-01T16:42:54;8.20;99.90
64012;DHT22;50211;52.768;12.124;2023-03-01T16:45:20;7.90;99.90
64012;DHT22;50211;52.768;12.124;2023-03-01T16:47:46;7.70;99.90
64012;DHT22;50211;52.768;12.124;2023-03-01T16:50:11;7.50;99.90
64012;DHT22;50211;52.768;12.124;2023-03-01T16:52:37;7.40;99.90
64012;DHT22;50211;52.768;12.124;2023-03-01T16:55:05;7.20;99.90
64012;DHT22;50211;52.768;12.124;2023-03-01T16:57:33;7.00;99.90
64012;DHT22;50211;52.768;12.124;2023-03-01T16:59:58;6.90;99.90